Terminal Aerodrome Forecast
Issued by NWS Charleston, WV

Current Version | Previous Version | Text Only | Print | Product List | Glossary Off
Versions: 1 2 3 4 5 6 7 8 9 10 11 12 13 14 15 16 17 18 19 20 21 22 23 24 25

000
FTUS41 KRLX 151500 AAC
TAFPKB
TAF AMD
KPKB 151508Z 1515/1612 24005KT P6SM SCT020
     FM160100 00000KT P6SM BKN090
     FM160600 VRB03KT 5SM BR BKN040=

USA.gov is the U.S. government's official web portal to all federal, state and local government web resources and services.